Keasbey, New Jersey
Current Conditions -  °F | °C
As of 11:35 AM on Sunday 25 Jan 2015 (Local Time) from KLDJ Reporting Station
Clear Clear  
Wind Chill: 39°   Ceiling: Unl
Heat Index: 45°   Visibility: 10mi
Dew Point: 24°   Wind: 13mph
Humidity: 44%   Direction: 310°NW
Pressure: 29.78"   Gusts: 24mph
Location:  40.52°N, 74.31°W
Report Text: KLDJ 251635Z AUTO 31011G21KT 10SM CLR 07/M04 A2978 RMK AO2 T00721043
Loading
Personal Weather Stations






























Interactive Weather Map New forecast layout! Learn more

10-Day Weather Forecast

Advertisements
Track Severe Weather on mobile